createdAt,value
2022-12-24T00:01:57.596Z,91
2022-12-24T00:05:22.797Z,91
2022-12-24T00:08:48.043Z,91
2022-12-24T00:12:13.293Z,92
2022-12-24T00:15:38.528Z,92
2022-12-24T00:19:03.813Z,92
2022-12-24T00:22:29.029Z,92
2022-12-24T00:25:54.364Z,92
2022-12-24T00:29:19.706Z,92
2022-12-24T00:32:44.869Z,93
2022-12-24T00:36:10.106Z,93
2022-12-24T00:39:35.362Z,93
2022-12-24T00:43:00.596Z,94
2022-12-24T00:46:25.894Z,94
2022-12-24T00:49:51.089Z,94
2022-12-24T00:53:16.327Z,95
2022-12-24T00:56:41.557Z,93
2022-12-24T01:00:06.812Z,93
2022-12-24T01:03:32.144Z,93
2022-12-24T01:06:57.299Z,93
2022-12-24T01:10:22.544Z,92
2022-12-24T01:13:47.834Z,92
2022-12-24T01:17:13.049Z,92
2022-12-24T01:20:38.317Z,91
2022-12-24T01:24:03.553Z,91
2022-12-24T01:27:28.795Z,91
2022-12-24T01:30:54.070Z,92
2022-12-24T01:34:19.312Z,93
2022-12-24T01:37:44.677Z,93
2022-12-24T01:41:09.787Z,93
2022-12-24T01:44:36.830Z,93
2022-12-24T01:48:00.261Z,93
2022-12-24T01:51:25.496Z,93
2022-12-24T01:54:50.781Z,93
2022-12-24T01:58:15.997Z,93
2022-12-24T02:01:41.335Z,93
2022-12-24T02:05:06.504Z,93
2022-12-24T02:08:31.754Z,93
2022-12-24T02:11:57.025Z,92
2022-12-24T02:15:22.224Z,91
2022-12-24T02:18:47.477Z,90
2022-12-24T02:22:12.708Z,90
2022-12-24T02:25:37.925Z,90
2022-12-24T02:29:03.228Z,90
2022-12-24T02:32:28.446Z,90
2022-12-24T02:35:53.664Z,90
2022-12-24T02:39:18.927Z,89
2022-12-24T02:42:44.214Z,89
2022-12-24T02:46:09.487Z,88
2022-12-24T02:49:34.692Z,88
2022-12-24T02:52:59.961Z,89
2022-12-24T02:56:25.206Z,89
2022-12-24T02:59:50.445Z,89
2022-12-24T03:03:15.724Z,89
2022-12-24T03:06:40.947Z,89
2022-12-24T03:10:06.193Z,90
2022-12-24T03:13:31.454Z,90
2022-12-24T03:16:56.709Z,90
2022-12-24T03:20:22.229Z,90
2022-12-24T03:23:47.445Z,90
2022-12-24T03:27:12.684Z,90
2022-12-24T03:30:37.946Z,91
2022-12-24T03:34:03.209Z,90
2022-12-24T03:37:28.464Z,90
2022-12-24T03:40:53.669Z,91
2022-12-24T03:44:18.943Z,91
2022-12-24T03:47:44.199Z,91
2022-12-24T03:51:09.471Z,91
2022-12-24T03:54:34.731Z,91
2022-12-24T03:57:59.975Z,91
2022-12-24T04:01:25.355Z,91
2022-12-24T04:04:50.485Z,92
2022-12-24T04:08:15.730Z,91
2022-12-24T04:11:40.988Z,91
2022-12-24T04:15:06.226Z,91
2022-12-24T04:18:31.507Z,91
2022-12-24T04:21:56.735Z,91
2022-12-24T04:25:21.992Z,91
2022-12-24T04:28:47.268Z,91
2022-12-24T04:32:12.533Z,91
2022-12-24T04:35:37.737Z,90
2022-12-24T04:39:03.010Z,90
2022-12-24T04:42:28.265Z,91
2022-12-24T04:45:53.580Z,90
2022-12-24T04:49:18.742Z,91
2022-12-24T04:52:44.009Z,91
2022-12-24T04:56:09.254Z,90
2022-12-24T04:59:34.517Z,90
2022-12-24T05:02:59.795Z,90
2022-12-24T05:06:25.012Z,90
2022-12-24T05:09:50.270Z,90
2022-12-24T05:13:15.543Z,90
2022-12-24T05:16:40.816Z,90
2022-12-24T05:20:06.046Z,90
2022-12-24T05:23:31.300Z,90
2022-12-24T05:26:56.514Z,90
2022-12-24T05:30:21.770Z,90
2022-12-24T05:33:47.014Z,90
2022-12-24T05:37:12.269Z,90
2022-12-24T05:40:37.508Z,91
2022-12-24T05:44:02.760Z,91
2022-12-24T05:47:28.033Z,91
2022-12-24T05:50:53.245Z,91
2022-12-24T05:54:18.490Z,91
2022-12-24T05:57:43.725Z,91
2022-12-24T06:01:09.017Z,91
2022-12-24T06:04:34.276Z,91
2022-12-24T06:07:59.454Z,91
2022-12-24T06:11:24.733Z,92
2022-12-24T06:14:49.938Z,92
2022-12-24T06:18:15.198Z,91
2022-12-24T06:21:40.552Z,91
2022-12-24T06:25:05.851Z,90
2022-12-24T06:28:31.135Z,91
2022-12-24T06:31:56.342Z,90
2022-12-24T06:35:21.566Z,91
2022-12-24T06:38:46.830Z,91
2022-12-24T06:42:12.068Z,91
2022-12-24T06:45:37.375Z,91
2022-12-24T06:49:02.586Z,91
2022-12-24T06:52:27.856Z,91
2022-12-24T06:55:53.308Z,92
2022-12-24T06:59:18.576Z,92
2022-12-24T07:02:43.938Z,92
2022-12-24T07:06:09.097Z,92
2022-12-24T07:09:34.360Z,92
2022-12-24T07:12:59.651Z,92
2022-12-24T07:16:24.988Z,92
2022-12-24T07:19:50.166Z,92
2022-12-24T07:23:15.404Z,92
2022-12-24T07:26:40.649Z,92
2022-12-24T07:30:05.957Z,92
2022-12-24T07:33:31.203Z,92
2022-12-24T07:36:56.481Z,92
2022-12-24T07:40:21.691Z,92
2022-12-24T07:43:46.935Z,92
2022-12-24T07:47:12.245Z,92
2022-12-24T07:50:37.447Z,91
2022-12-24T07:54:02.718Z,92
2022-12-24T07:57:27.943Z,91
2022-12-24T08:00:53.210Z,91
2022-12-24T08:04:18.758Z,91
2022-12-24T08:07:43.936Z,91
2022-12-24T08:11:09.197Z,92
2022-12-24T08:14:34.435Z,92
2022-12-24T08:17:59.679Z,92
2022-12-24T08:21:24.947Z,92
2022-12-24T08:24:50.176Z,92
2022-12-24T08:28:15.461Z,92
2022-12-24T08:31:40.727Z,93
2022-12-24T08:35:05.942Z,93
2022-12-24T08:38:31.175Z,93
2022-12-24T08:41:56.406Z,93
2022-12-24T08:45:21.663Z,93
2022-12-24T08:48:46.903Z,93
2022-12-24T08:52:12.150Z,93
2022-12-24T08:55:37.395Z,93
2022-12-24T08:59:02.649Z,94
2022-12-24T09:02:28.062Z,94
2022-12-24T09:05:53.141Z,94
2022-12-24T09:09:18.376Z,95
2022-12-24T09:12:43.632Z,94
2022-12-24T09:16:08.933Z,94
2022-12-24T09:19:34.095Z,93
2022-12-24T09:22:59.314Z,94
2022-12-24T09:26:24.562Z,94
2022-12-24T09:29:49.879Z,94
2022-12-24T09:33:15.132Z,94
2022-12-24T09:36:40.783Z,94
2022-12-24T09:40:05.988Z,93
2022-12-24T09:43:31.287Z,93
2022-12-24T09:46:56.523Z,92
2022-12-24T09:50:21.813Z,93
2022-12-24T09:53:47.095Z,92
2022-12-24T09:57:19.267Z,92
2022-12-24T10:00:49.664Z,93
2022-12-24T10:04:09.785Z,92
2022-12-24T10:07:35.085Z,93
2022-12-24T10:11:00.403Z,92
2022-12-24T10:14:25.667Z,93
2022-12-24T10:17:50.976Z,93
2022-12-24T10:21:16.233Z,92
2022-12-24T10:24:46.446Z,93
2022-12-24T10:28:06.750Z,93
2022-12-24T10:31:31.950Z,93
2022-12-24T10:34:57.341Z,92
2022-12-24T10:38:22.777Z,92
2022-12-24T10:41:48.014Z,91
2022-12-24T10:45:13.266Z,91
2022-12-24T10:48:38.493Z,91
2022-12-24T10:52:03.733Z,92
2022-12-24T10:55:28.980Z,92
2022-12-24T10:58:54.231Z,91
2022-12-24T11:02:19.567Z,91
2022-12-24T11:05:44.734Z,91
2022-12-24T11:09:09.953Z,91
2022-12-24T11:12:35.202Z,91
2022-12-24T11:16:00.538Z,91
2022-12-24T11:19:25.699Z,91
2022-12-24T11:22:50.933Z,91
2022-12-24T11:26:16.175Z,91
2022-12-24T11:29:41.426Z,90
2022-12-24T11:33:06.687Z,90
2022-12-24T11:36:31.981Z,90
2022-12-24T11:39:57.217Z,89
2022-12-24T11:43:22.537Z,89
2022-12-24T11:46:47.833Z,89
2022-12-24T11:50:18.353Z,88
2022-12-24T11:53:38.324Z,89
2022-12-24T11:57:03.597Z,89
2022-12-24T12:00:28.832Z,89
2022-12-24T12:03:54.276Z,89
2022-12-24T12:07:19.623Z,90
2022-12-24T12:10:44.973Z,90
2022-12-24T12:14:10.411Z,91
2022-12-24T12:17:36.575Z,91
2022-12-24T12:21:01.828Z,91
2022-12-24T12:24:31.985Z,91
2022-12-24T12:27:53.447Z,90
2022-12-24T12:31:18.867Z,91
2022-12-24T12:34:44.186Z,91
2022-12-24T12:38:09.475Z,92
2022-12-24T12:41:34.851Z,92
2022-12-24T12:45:00.286Z,92
2022-12-24T12:48:25.595Z,92
2022-12-24T12:51:50.938Z,92
2022-12-24T12:55:20.458Z,92
2022-12-24T12:58:41.676Z,92
2022-12-24T13:02:07.145Z,93
2022-12-24T13:05:32.292Z,93
2022-12-24T13:08:57.650Z,93
2022-12-24T13:12:23.000Z,93
2022-12-24T13:15:48.435Z,92
2022-12-24T13:19:13.924Z,93
2022-12-24T13:22:39.191Z,92
2022-12-24T13:26:04.451Z,92
2022-12-24T13:29:29.782Z,92
2022-12-24T13:32:55.104Z,91
2022-12-24T13:36:20.380Z,91
2022-12-24T13:39:45.699Z,90
2022-12-24T13:43:11.078Z,91
2022-12-24T13:46:36.412Z,91
2022-12-24T13:50:01.908Z,90
2022-12-24T13:53:27.113Z,89
2022-12-24T13:56:52.382Z,89
2022-12-24T14:00:17.737Z,89
2022-12-24T14:03:43.133Z,89
2022-12-24T14:07:08.836Z,88
2022-12-24T14:10:34.306Z,88
2022-12-24T14:13:59.592Z,88
2022-12-24T14:17:24.867Z,88
2022-12-24T14:20:50.116Z,88
2022-12-24T14:24:15.441Z,89
2022-12-24T14:27:40.716Z,89
2022-12-24T14:31:05.927Z,89
2022-12-24T15:06:01.230Z,92
2022-12-24T15:09:26.453Z,92
2022-12-24T15:12:51.732Z,92
2022-12-24T15:16:17.023Z,92
2022-12-24T15:19:42.227Z,92
2022-12-24T15:23:07.543Z,92
2022-12-24T15:26:32.797Z,93
2022-12-24T15:29:58.086Z,93
2022-12-24T15:33:23.437Z,93
2022-12-24T15:36:48.770Z,92
2022-12-24T15:40:14.122Z,92
2022-12-24T15:43:39.489Z,91
2022-12-24T15:47:04.987Z,92
2022-12-24T15:50:30.496Z,92
2022-12-24T15:53:55.757Z,91
2022-12-24T15:57:21.283Z,91
2022-12-24T16:00:46.509Z,91
2022-12-24T16:04:11.865Z,91
2022-12-24T16:07:37.096Z,91
2022-12-24T16:11:02.355Z,91
2022-12-24T16:14:28.028Z,92
2022-12-24T16:17:53.260Z,92
2022-12-24T16:21:18.521Z,92
2022-12-24T16:24:43.789Z,92
2022-12-24T16:28:12.027Z,92
2022-12-24T16:31:34.429Z,92
2022-12-24T16:34:59.588Z,92
2022-12-24T16:38:24.833Z,92
2022-12-24T16:41:50.048Z,92
2022-12-24T16:45:15.407Z,92
2022-12-24T16:48:40.825Z,92
2022-12-24T16:52:06.113Z,92
2022-12-24T16:55:31.511Z,92
2022-12-24T16:58:56.943Z,92
2022-12-24T17:02:22.456Z,93
2022-12-24T17:05:47.455Z,93
2022-12-24T17:09:12.780Z,93
2022-12-24T17:12:38.069Z,93
2022-12-24T17:16:03.467Z,92
2022-12-24T17:19:28.660Z,92
2022-12-24T17:22:54.026Z,92
2022-12-24T17:26:19.342Z,92
2022-12-24T17:29:44.717Z,92
2022-12-24T17:33:14.507Z,92
2022-12-24T17:36:35.288Z,92
2022-12-24T17:40:00.621Z,92
2022-12-24T17:43:25.820Z,92
2022-12-24T17:46:51.196Z,92
2022-12-24T17:50:16.825Z,92
2022-12-24T17:53:42.085Z,92
2022-12-24T17:57:07.360Z,92
2022-12-24T18:00:33.345Z,92
2022-12-24T18:03:57.931Z,92
2022-12-24T18:07:23.875Z,92
2022-12-24T18:10:49.151Z,92
2022-12-24T18:14:14.475Z,92
2022-12-24T18:17:40.372Z,92
2022-12-24T18:21:05.703Z,92
2022-12-24T18:24:30.992Z,92
2022-12-24T18:27:56.281Z,92
2022-12-24T18:31:21.700Z,92
2022-12-24T18:34:46.816Z,92
2022-12-24T18:38:12.183Z,91
2022-12-24T18:41:37.436Z,91
2022-12-24T18:45:02.763Z,91
2022-12-24T18:48:28.029Z,92
2022-12-24T18:51:53.903Z,91
2022-12-24T18:55:19.168Z,92
2022-12-24T18:58:44.462Z,92
2022-12-24T19:02:09.807Z,92
2022-12-24T19:05:35.056Z,93
2022-12-24T19:09:01.419Z,93
2022-12-24T19:12:25.589Z,94
2022-12-24T19:15:50.869Z,94
2022-12-24T19:19:16.564Z,94
2022-12-24T19:22:41.865Z,94
2022-12-24T19:26:07.103Z,94
2022-12-24T19:29:32.379Z,94
2022-12-24T19:32:57.646Z,94
2022-12-24T19:36:22.970Z,95
2022-12-24T19:39:48.298Z,95
2022-12-24T19:43:13.571Z,94
2022-12-24T19:46:38.878Z,94
2022-12-24T19:50:04.144Z,94
2022-12-24T19:53:29.412Z,94
2022-12-24T19:56:54.702Z,94
2022-12-24T20:00:19.965Z,93
2022-12-24T20:03:45.282Z,93
2022-12-24T20:07:10.559Z,93
2022-12-24T20:10:35.853Z,92
2022-12-24T20:14:01.129Z,92
2022-12-24T20:17:26.351Z,92
2022-12-24T20:20:51.619Z,92
2022-12-24T20:24:16.887Z,92
2022-12-24T20:27:42.191Z,93
2022-12-24T20:31:07.504Z,93
2022-12-24T20:34:32.783Z,94
2022-12-24T20:37:58.063Z,93
2022-12-24T20:41:23.301Z,93
2022-12-24T20:44:48.575Z,93
2022-12-24T20:48:13.851Z,93
2022-12-24T20:51:39.107Z,93
2022-12-24T20:55:04.364Z,93
2022-12-24T20:58:29.624Z,93
2022-12-24T21:01:55.001Z,93
2022-12-24T21:05:20.179Z,93
2022-12-24T21:08:45.444Z,93
2022-12-24T21:12:10.724Z,94
2022-12-24T21:15:35.993Z,93
2022-12-24T21:19:01.248Z,93
2022-12-24T21:22:26.553Z,93
2022-12-24T21:25:51.812Z,93
2022-12-24T21:29:17.102Z,94
2022-12-24T21:32:42.351Z,94
2022-12-24T21:36:07.627Z,94
2022-12-24T21:39:32.931Z,94
2022-12-24T21:42:58.174Z,94
2022-12-24T21:46:23.507Z,94
2022-12-24T21:49:48.728Z,94
2022-12-24T21:53:13.946Z,94
2022-12-24T21:56:39.234Z,94
2022-12-24T22:00:04.448Z,93
2022-12-24T22:03:29.816Z,93
2022-12-24T22:06:55.011Z,94
2022-12-24T22:10:20.298Z,94
2022-12-24T22:13:46.376Z,94
2022-12-24T22:17:11.654Z,94
2022-12-24T22:20:36.891Z,94
2022-12-24T22:24:02.142Z,94
2022-12-24T22:27:27.407Z,94
2022-12-24T22:30:52.761Z,94
2022-12-24T22:34:18.834Z,94
2022-12-24T22:37:44.114Z,93
2022-12-24T22:41:09.386Z,93
2022-12-24T22:44:34.663Z,93
2022-12-24T22:47:59.954Z,93
2022-12-24T22:51:25.168Z,93
2022-12-24T22:54:50.437Z,94
2022-12-24T22:58:15.704Z,94
2022-12-24T23:01:41.106Z,94
2022-12-24T23:05:06.266Z,93
2022-12-24T23:08:31.497Z,94
2022-12-24T23:11:56.738Z,94
2022-12-24T23:15:21.993Z,94
2022-12-24T23:18:47.261Z,94
2022-12-24T23:22:12.556Z,94
2022-12-24T23:25:37.786Z,94
2022-12-24T23:29:03.058Z,94
2022-12-24T23:32:28.320Z,94
2022-12-24T23:35:53.604Z,94
2022-12-24T23:39:18.864Z,94
2022-12-24T23:42:44.084Z,94
2022-12-24T23:46:09.423Z,94
2022-12-24T23:49:34.619Z,94
2022-12-24T23:52:59.861Z,93
2022-12-24T23:56:25.134Z,93
2022-12-24T23:59:50.368Z,93
